Time;durP1;ratioP1;P1;durP2;ratioP2;P2;SDS_P1;SDS_P2;PMS_P1;PMS_P2;Temp;Humidity;BMP_temperature;BMP_pressure;BME280_temperature;BME280_humidity;BME280_pressure;Samples;Min_cycle;Max_cycle;Signal;HPM_P1;HPM_P2
2023/08/14 00:00:09;;;;;;;26.03;24.73;;;;;;;;;;4974471;28;20426;-41
2023/08/14 00:02:38;;;;;;;27.67;26.27;;;;;;;;;;4973911;28;21031;-41
2023/08/14 00:05:06;;;;;;;27.33;26.13;;;;;;;;;;4976562;28;20987;-42
2023/08/14 00:07:33;;;;;;;28.37;26.87;;;;;;;;;;4974440;28;20462;-40
2023/08/14 00:10:01;;;;;;;26.90;25.57;;;;;;;;;;4973440;28;20484;-42
2023/08/14 00:12:28;;;;;;;27.97;26.37;;;;;;;;;;4973639;28;20469;-44
2023/08/14 00:14:56;;;;;;;27.47;25.90;;;;;;;;;;4973051;28;20876;-41
2023/08/14 00:17:23;;;;;;;26.63;25.43;;;;;;;;;;4973128;28;20459;-42
2023/08/14 00:19:52;;;;;;;28.57;27.00;;;;;;;;;;4972865;28;20458;-40
2023/08/14 00:22:20;;;;;;;27.07;25.03;;;;;;;;;;4973143;28;20438;-41
2023/08/14 00:24:47;;;;;;;24.80;23.80;;;;;;;;;;4972573;28;20525;-39
2023/08/14 00:27:16;;;;;;;26.17;25.07;;;;;;;;;;4973057;28;20451;-39
2023/08/14 00:29:43;;;;;;;25.30;23.93;;;;;;;;;;4973658;28;20474;-44
2023/08/14 00:32:11;;;;;;;24.57;23.40;;;;;;;;;;4974786;28;20533;-40
2023/08/14 00:34:39;;;;;;;24.20;23.10;;;;;;;;;;4972918;28;21003;-39
2023/08/14 00:37:08;;;;;;;25.67;24.77;;;;;;;;;;4973162;28;20454;-42
2023/08/14 00:39:35;;;;;;;23.47;22.53;;;;;;;;;;4974073;28;20439;-39
2023/08/14 00:42:03;;;;;;;26.07;25.07;;;;;;;;;;4973325;28;20462;-41
2023/08/14 00:44:30;;;;;;;25.43;24.10;;;;;;;;;;4972874;28;20463;-39
2023/08/14 00:46:58;;;;;;;23.90;22.83;;;;;;;;;;4972120;28;20509;-43
2023/08/14 00:49:26;;;;;;;24.63;23.63;;;;;;;;;;4972994;28;20557;-39
2023/08/14 00:51:53;;;;;;;25.90;24.57;;;;;;;;;;4973701;28;20828;-40
2023/08/14 00:54:22;;;;;;;26.67;25.67;;;;;;;;;;4973208;28;20470;-39
2023/08/14 00:56:50;;;;;;;26.47;25.37;;;;;;;;;;4973404;28;20445;-45
2023/08/14 00:59:18;;;;;;;25.53;24.43;;;;;;;;;;4973573;28;20477;-40
2023/08/14 01:01:46;;;;;;;27.43;26.33;;;;;;;;;;5000574;22;20441;-41
2023/08/14 01:04:13;;;;;;;26.10;24.83;;;;;;;;;;4992738;28;20556;-42
2023/08/14 01:06:41;;;;;;;29.33;27.90;;;;;;;;;;4993154;28;20430;-46
2023/08/14 01:09:11;;;;;;;28.93;27.73;;;;;;;;;;4992932;28;20462;-42
2023/08/14 01:11:44;;;;;;;26.03;24.93;;;;;;;;;;4992597;28;20480;-41
2023/08/14 01:14:17;;;;;;;25.90;24.63;;;;;;;;;;4992575;28;20516;-41
2023/08/14 01:16:48;;;;;;;29.47;27.90;;;;;;;;;;4993275;28;20450;-40
2023/08/14 01:19:20;;;;;;;26.00;24.60;;;;;;;;;;4993165;28;20488;-42
2023/08/14 01:21:53;;;;;;;27.80;26.60;;;;;;;;;;4992427;28;21014;-45
2023/08/14 01:24:25;;;;;;;26.70;25.60;;;;;;;;;;4991435;28;20474;-42
2023/08/14 01:26:54;;;;;;;26.10;25.10;;;;;;;;;;4992576;28;20477;-40
2023/08/14 01:29:22;;;;;;;28.50;27.10;;;;;;;;;;4992989;28;20477;-43
2023/08/14 01:31:49;;;;;;;26.40;25.20;;;;;;;;;;4992138;28;20536;-44
2023/08/14 01:34:17;;;;;;;28.57;27.27;;;;;;;;;;4992200;28;20493;-46
2023/08/14 01:36:49;;;;;;;26.13;24.97;;;;;;;;;;4992417;28;20433;-40
2023/08/14 01:39:19;;;;;;;25.10;24.00;;;;;;;;;;4992752;28;20461;-41
2023/08/14 01:41:52;;;;;;;26.13;24.87;;;;;;;;;;4992264;28;20931;-41
2023/08/14 01:44:23;;;;;;;27.40;26.20;;;;;;;;;;4991873;28;20473;-41
2023/08/14 01:46:52;;;;;;;29.37;27.87;;;;;;;;;;4992070;28;20433;-43
2023/08/14 01:49:20;;;;;;;28.60;27.30;;;;;;;;;;4992419;28;20481;-41
2023/08/14 01:51:49;;;;;;;27.77;26.70;;;;;;;;;;4992480;28;20434;-44
2023/08/14 01:54:16;;;;;;;26.67;25.70;;;;;;;;;;4991745;28;20504;-42
2023/08/14 01:56:44;;;;;;;27.47;26.37;;;;;;;;;;4992397;28;20429;-40
2023/08/14 01:59:11;;;;;;;28.63;27.20;;;;;;;;;;4992040;28;20524;-43
2023/08/14 02:01:40;;;;;;;31.07;29.57;;;;;;;;;;4991749;28;20433;-41
2023/08/14 02:04:09;;;;;;;32.40;31.10;;;;;;;;;;4989813;28;20469;-43
2023/08/14 02:06:36;;;;;;;30.67;29.27;;;;;;;;;;4991003;28;20430;-42
2023/08/14 02:09:04;;;;;;;31.03;29.33;;;;;;;;;;4991864;28;20481;-47
2023/08/14 02:11:31;;;;;;;31.03;29.50;;;;;;;;;;4991322;28;20441;-43
2023/08/14 02:13:59;;;;;;;31.60;30.20;;;;;;;;;;4991417;28;20556;-40
2023/08/14 02:16:26;;;;;;;32.57;30.90;;;;;;;;;;4991149;28;20438;-42
2023/08/14 02:18:55;;;;;;;31.40;29.97;;;;;;;;;;4992177;28;20977;-45
2023/08/14 02:21:23;;;;;;;30.83;29.53;;;;;;;;;;4991411;28;20440;-43
2023/08/14 02:23:51;;;;;;;33.13;31.50;;;;;;;;;;4991508;28;20843;-43
2023/08/14 02:26:18;;;;;;;32.17;30.80;;;;;;;;;;4991962;28;20441;-41
2023/08/14 02:28:46;;;;;;;35.30;33.47;;;;;;;;;;4991907;28;20492;-43
2023/08/14 02:31:13;;;;;;;35.63;33.83;;;;;;;;;;4991841;28;20477;-41
2023/08/14 02:33:41;;;;;;;37.07;35.43;;;;;;;;;;4990832;28;20473;-43
2023/08/14 02:36:10;;;;;;;39.73;38.10;;;;;;;;;;4991227;28;20664;-40
2023/08/14 02:38:37;;;;;;;43.40;41.40;;;;;;;;;;4991380;28;20445;-40
2023/08/14 02:41:06;;;;;;;42.63;41.03;;;;;;;;;;4991656;28;20547;-40
2023/08/14 02:43:34;;;;;;;42.50;40.90;;;;;;;;;;4990820;28;20465;-44
2023/08/14 02:46:01;;;;;;;49.83;47.73;;;;;;;;;;4991171;28;20438;-44
2023/08/14 02:48:29;;;;;;;53.10;50.10;;;;;;;;;;4991758;28;20448;-42
2023/08/14 02:50:56;;;;;;;49.40;47.57;;;;;;;;;;4990781;28;20871;-42
2023/08/14 02:53:25;;;;;;;50.20;47.70;;;;;;;;;;4990574;28;20454;-41
2023/08/14 02:55:53;;;;;;;51.63;49.53;;;;;;;;;;4990893;28;20455;-43
2023/08/14 02:58:20;;;;;;;56.20;53.90;;;;;;;;;;4990990;28;20529;-42
2023/08/14 03:00:48;;;;;;;59.73;57.33;;;;;;;;;;4991147;28;20517;-41
2023/08/14 03:03:16;;;;;;;59.37;56.80;;;;;;;;;;4990551;28;20986;-44
2023/08/14 03:05:44;;;;;;;58.33;55.70;;;;;;;;;;4990889;28;20442;-42
2023/08/14 03:08:12;;;;;;;54.60;52.50;;;;;;;;;;4990836;28;20953;-40
2023/08/14 03:10:40;;;;;;;58.90;56.70;;;;;;;;;;4990981;28;20885;-44
2023/08/14 03:13:09;;;;;;;62.30;59.87;;;;;;;;;;4990565;28;20552;-41
2023/08/14 03:15:36;;;;;;;63.13;60.60;;;;;;;;;;4991060;28;20541;-40
2023/08/14 03:18:04;;;;;;;64.23;61.30;;;;;;;;;;4991246;28;20434;-41
2023/08/14 03:20:31;;;;;;;57.20;54.73;;;;;;;;;;4991398;28;20505;-43
2023/08/14 03:22:59;;;;;;;62.13;59.93;;;;;;;;;;4990754;28;20725;-44
2023/08/14 03:25:26;;;;;;;61.50;59.10;;;;;;;;;;4990488;28;20860;-42
2023/08/14 03:27:55;;;;;;;66.57;64.07;;;;;;;;;;4991391;28;20462;-42
2023/08/14 03:30:23;;;;;;;61.63;58.60;;;;;;;;;;4990926;28;20441;-43
2023/08/14 03:32:50;;;;;;;65.33;62.70;;;;;;;;;;4990622;28;21062;-41
2023/08/14 03:35:18;;;;;;;65.67;62.70;;;;;;;;;;4990746;28;20478;-46
2023/08/14 03:37:45;;;;;;;63.03;60.47;;;;;;;;;;4990582;28;20533;-45
2023/08/14 03:40:14;;;;;;;65.07;62.37;;;;;;;;;;4990762;28;20505;-41
2023/08/14 03:42:42;;;;;;;69.63;66.80;;;;;;;;;;4990435;28;20541;-42
2023/08/14 03:45:11;;;;;;;62.20;59.77;;;;;;;;;;4990466;28;20561;-45
2023/08/14 03:47:38;;;;;;;65.77;63.20;;;;;;;;;;4990677;28;20440;-40
2023/08/14 03:50:06;;;;;;;63.33;60.80;;;;;;;;;;4990405;28;20422;-42
2023/08/14 03:52:34;;;;;;;65.77;63.10;;;;;;;;;;4990530;28;20819;-40
2023/08/14 03:55:01;;;;;;;63.07;60.57;;;;;;;;;;4989962;28;20498;-46
2023/08/14 03:57:29;;;;;;;62.13;59.80;;;;;;;;;;4990933;28;20800;-42
2023/08/14 03:59:56;;;;;;;61.80;59.33;;;;;;;;;;4990966;28;20434;-47
2023/08/14 04:02:25;;;;;;;59.83;57.10;;;;;;;;;;4990501;28;20500;-42
2023/08/14 04:04:53;;;;;;;59.50;57.20;;;;;;;;;;4990708;28;20466;-45
2023/08/14 04:07:20;;;;;;;59.90;57.33;;;;;;;;;;4994089;28;20458;-44
2023/08/14 04:09:48;;;;;;;59.07;56.47;;;;;;;;;;4994485;28;20490;-41
2023/08/14 04:12:15;;;;;;;57.30;54.97;;;;;;;;;;4993986;28;20457;-41
2023/08/14 04:14:44;;;;;;;57.83;55.63;;;;;;;;;;4993514;28;20556;-44
2023/08/14 04:17:11;;;;;;;56.13;54.00;;;;;;;;;;4993855;28;20521;-44
2023/08/14 04:19:40;;;;;;;57.20;55.00;;;;;;;;;;4993721;28;20959;-43
2023/08/14 04:22:07;;;;;;;56.30;53.80;;;;;;;;;;4993414;28;20477;-45
2023/08/14 04:24:35;;;;;;;57.03;54.83;;;;;;;;;;4993383;28;20458;-43
2023/08/14 04:27:02;;;;;;;60.73;58.50;;;;;;;;;;4993909;28;20820;-45
2023/08/14 04:29:30;;;;;;;58.30;56.20;;;;;;;;;;4993975;28;20474;-43
2023/08/14 04:31:57;;;;;;;53.30;50.90;;;;;;;;;;4993172;28;20450;-43
2023/08/14 04:34:25;;;;;;;56.27;53.57;;;;;;;;;;4993039;28;21054;-40
2023/08/14 04:36:54;;;;;;;56.77;54.47;;;;;;;;;;4993167;28;20541;-41
2023/08/14 04:39:21;;;;;;;53.37;51.37;;;;;;;;;;4993412;28;20433;-43
2023/08/14 04:41:49;;;;;;;52.87;50.73;;;;;;;;;;4993234;28;21081;-45
2023/08/14 04:44:16;;;;;;;50.07;48.17;;;;;;;;;;4992525;28;20466;-43
2023/08/14 04:46:44;;;;;;;52.50;49.90;;;;;;;;;;4993207;28;20438;-42
2023/08/14 04:49:25;;;;;;;51.53;49.10;;;;;;;;;;4993281;28;20930;-40
2023/08/14 04:51:54;;;;;;;49.80;47.33;;;;;;;;;;4992886;28;20440;-42
2023/08/14 04:54:21;;;;;;;46.23;44.33;;;;;;;;;;4992680;28;20508;-45
2023/08/14 04:56:49;;;;;;;40.60;39.07;;;;;;;;;;4993056;28;20438;-40
2023/08/14 04:59:16;;;;;;;39.53;37.80;;;;;;;;;;4993018;28;20524;-41
2023/08/14 05:01:45;;;;;;;35.60;34.00;;;;;;;;;;4992409;28;20478;-41
2023/08/14 05:04:12;;;;;;;29.53;28.00;;;;;;;;;;4992653;28;20466;-40
2023/08/14 05:06:40;;;;;;;23.40;22.50;;;;;;;;;;4992880;28;20437;-40
2023/08/14 05:09:09;;;;;;;25.40;23.93;;;;;;;;;;4992904;28;20433;-41
2023/08/14 05:11:52;;;;;;;26.20;25.00;;;;;;;;;;4992786;28;20436;-44
2023/08/14 05:14:20;;;;;;;26.93;25.23;;;;;;;;;;4991890;28;20501;-43
2023/08/14 05:16:47;;;;;;;27.43;26.20;;;;;;;;;;4992304;28;20431;-41
2023/08/14 05:19:15;;;;;;;25.87;24.73;;;;;;;;;;4992775;28;20473;-43
2023/08/14 05:21:45;;;;;;;26.40;25.20;;;;;;;;;;4992115;28;20568;-40
2023/08/14 05:24:14;;;;;;;23.57;22.60;;;;;;;;;;4992502;28;20462;-42
2023/08/14 05:26:42;;;;;;;22.10;21.30;;;;;;;;;;4992536;28;20796;-41
2023/08/14 05:29:09;;;;;;;20.50;19.57;;;;;;;;;;4992430;28;20545;-43
2023/08/14 05:31:37;;;;;;;21.37;20.57;;;;;;;;;;4992042;28;20500;-45
2023/08/14 05:34:04;;;;;;;20.50;19.50;;;;;;;;;;4991398;28;20465;-44
2023/08/14 05:36:32;;;;;;;19.63;18.70;;;;;;;;;;4992019;28;21034;-44
2023/08/14 05:38:59;;;;;;;18.43;17.63;;;;;;;;;;4992381;28;20935;-45
2023/08/14 05:41:28;;;;;;;15.33;14.70;;;;;;;;;;4992517;28;20473;-42
2023/08/14 05:43:56;;;;;;;15.80;14.80;;;;;;;;;;4992055;28;20473;-44
2023/08/14 05:46:24;;;;;;;11.87;11.47;;;;;;;;;;4992262;28;20440;-43
2023/08/14 05:48:52;;;;;;;10.80;9.93;;;;;;;;;;4992276;28;20482;-43
2023/08/14 05:51:19;;;;;;;11.10;9.63;;;;;;;;;;4992628;28;20891;-44
2023/08/14 05:53:47;;;;;;;9.33;8.70;;;;;;;;;;4991769;28;20492;-43
2023/08/14 05:56:14;;;;;;;9.00;8.40;;;;;;;;;;4992307;28;20273;-41
2023/08/14 05:58:43;;;;;;;8.97;8.10;;;;;;;;;;4992377;28;20281;-42
2023/08/14 06:01:10;;;;;;;7.37;7.00;;;;;;;;;;4991860;28;20260;-41
2023/08/14 06:03:39;;;;;;;8.13;7.50;;;;;;;;;;4990607;28;20234;-40
2023/08/14 06:06:11;;;;;;;8.27;7.43;;;;;;;;;;4991894;28;20725;-44
2023/08/14 06:08:39;;;;;;;7.73;7.23;;;;;;;;;;4991993;28;20198;-40
2023/08/14 06:11:06;;;;;;;8.37;7.80;;;;;;;;;;4991755;28;20233;-41
2023/08/14 06:13:34;;;;;;;8.07;7.37;;;;;;;;;;4991450;28;20237;-45
2023/08/14 06:16:02;;;;;;;8.07;7.60;;;;;;;;;;4991457;28;20242;-41
2023/08/14 06:18:30;;;;;;;7.30;6.80;;;;;;;;;;4992047;28;20228;-44
2023/08/14 06:20:57;;;;;;;7.90;7.20;;;;;;;;;;4991713;28;20244;-45
2023/08/14 06:23:25;;;;;;;5.70;5.38;;;;;;;;;;4991030;28;20787;-43
2023/08/14 06:25:52;;;;;;;8.73;5.90;;;;;;;;;;4990983;28;20222;-42
2023/08/14 06:28:20;;;;;;;5.85;5.45;;;;;;;;;;4991308;28;20241;-42
2023/08/14 06:30:47;;;;;;;5.80;5.30;;;;;;;;;;4991308;28;20660;-39
2023/08/14 06:33:16;;;;;;;5.38;4.88;;;;;;;;;;4991002;28;20225;-40
2023/08/14 06:35:44;;;;;;;5.78;5.35;;;;;;;;;;4991664;28;20198;-41
2023/08/14 06:38:11;;;;;;;5.53;5.15;;;;;;;;;;4991408;28;20217;-39
2023/08/14 06:40:39;;;;;;;5.55;5.15;;;;;;;;;;4991773;28;20206;-42
2023/08/14 06:43:07;;;;;;;5.40;5.03;;;;;;;;;;4990622;28;20226;-43
2023/08/14 06:45:34;;;;;;;6.30;5.78;;;;;;;;;;4991369;28;20567;-46
2023/08/14 06:48:02;;;;;;;4.97;4.43;;;;;;;;;;4991175;28;20292;-43
2023/08/14 06:50:31;;;;;;;5.38;4.95;;;;;;;;;;4991367;28;20288;-40
2023/08/14 06:52:58;;;;;;;5.80;5.32;;;;;;;;;;4991456;28;20305;-41
2023/08/14 06:55:26;;;;;;;5.05;4.55;;;;;;;;;;4990341;28;20222;-40
2023/08/14 06:57:53;;;;;;;5.65;5.10;;;;;;;;;;4990833;28;20212;-46
2023/08/14 07:00:21;;;;;;;5.32;4.82;;;;;;;;;;4991197;28;20204;-41
2023/08/14 07:02:49;;;;;;;4.93;4.50;;;;;;;;;;4990699;28;20217;-41
2023/08/14 07:05:16;;;;;;;5.05;4.43;;;;;;;;;;4990859;28;20304;-43
2023/08/14 07:07:45;;;;;;;4.85;4.05;;;;;;;;;;4991151;28;20696;-41
2023/08/14 07:10:13;;;;;;;5.15;4.75;;;;;;;;;;4990840;28;20198;-45
2023/08/14 07:12:40;;;;;;;4.32;3.92;;;;;;;;;;4990661;28;20305;-41
2023/08/14 07:15:10;;;;;;;4.05;3.85;;;;;;;;;;4990684;28;20284;-42
2023/08/14 07:17:38;;;;;;;4.60;4.30;;;;;;;;;;4990959;28;20648;-43
2023/08/14 07:20:06;;;;;;;4.60;4.20;;;;;;;;;;4990923;28;20210;-41
2023/08/14 07:22:37;;;;;;;6.03;3.78;;;;;;;;;;4991200;28;20226;-43
2023/08/14 07:25:07;;;;;;;6.65;4.72;;;;;;;;;;4990233;28;20224;-43
2023/08/14 07:27:34;;;;;;;4.65;3.92;;;;;;;;;;4991056;28;20230;-45
2023/08/14 07:30:02;;;;;;;4.75;4.45;;;;;;;;;;4990784;28;20612;-41
2023/08/14 07:32:29;;;;;;;4.22;3.92;;;;;;;;;;4990519;28;20272;-43
2023/08/14 07:34:57;;;;;;;6.03;3.90;;;;;;;;;;4990178;28;20229;-43
2023/08/14 07:37:24;;;;;;;4.30;3.90;;;;;;;;;;4992559;28;20293;-41
2023/08/14 07:39:52;;;;;;;5.50;3.77;;;;;;;;;;4994622;28;20664;-44
2023/08/14 07:42:21;;;;;;;5.07;4.30;;;;;;;;;;4994365;28;20272;-42
2023/08/14 07:44:48;;;;;;;4.40;4.00;;;;;;;;;;4994070;28;20225;-42
2023/08/14 07:47:16;;;;;;;5.47;4.23;;;;;;;;;;4994484;28;20198;-43
2023/08/14 07:49:43;;;;;;;4.53;4.20;;;;;;;;;;4994480;28;20190;-41
2023/08/14 07:52:11;;;;;;;3.37;3.10;;;;;;;;;;4994438;28;20214;-47
2023/08/14 07:54:38;;;;;;;4.20;3.77;;;;;;;;;;4993745;28;20844;-44
2023/08/14 07:57:06;;;;;;;3.83;3.43;;;;;;;;;;4993980;28;20470;-42
2023/08/14 07:59:34;;;;;;;5.10;3.20;;;;;;;;;;4994124;28;20437;-44
2023/08/14 08:02:02;;;;;;;3.20;3.10;;;;;;;;;;4993809;28;20467;-44
2023/08/14 08:04:36;;;;;;;4.57;3.97;;;;;;;;;;4993764;28;20543;-44
2023/08/14 08:07:07;;;;;;;4.77;4.33;;;;;;;;;;4994021;28;20471;-42
2023/08/14 08:09:37;;;;;;;4.03;3.70;;;;;;;;;;4994278;28;20445;-44
2023/08/14 08:12:06;;;;;;;4.20;3.80;;;;;;;;;;4994259;28;20453;-45
2023/08/14 08:14:35;;;;;;;5.07;4.50;;;;;;;;;;4993477;28;21058;-45
2023/08/14 08:17:03;;;;;;;5.90;4.63;;;;;;;;;;4994475;28;20438;-43
2023/08/14 08:19:30;;;;;;;5.73;3.40;;;;;;;;;;4993976;28;20469;-43
2023/08/14 08:21:58;;;;;;;3.13;2.93;;;;;;;;;;4993907;28;21280;-41
2023/08/14 08:24:25;;;;;;;3.30;3.10;;;;;;;;;;4993078;28;20465;-44
2023/08/14 08:26:53;;;;;;;4.77;3.90;;;;;;;;;;4993495;28;20807;-45
2023/08/14 08:29:20;;;;;;;4.50;3.80;;;;;;;;;;4993680;28;20889;-43
2023/08/14 08:31:49;;;;;;;3.80;3.07;;;;;;;;;;4993828;28;20469;-41
2023/08/14 08:34:16;;;;;;;3.43;3.13;;;;;;;;;;4993222;28;20492;-42
2023/08/14 08:36:44;;;;;;;3.50;3.30;;;;;;;;;;4993696;28;20524;-41
2023/08/14 08:39:11;;;;;;;3.10;2.90;;;;;;;;;;4993521;28;20973;-42
2023/08/14 08:41:39;;;;;;;3.30;3.07;;;;;;;;;;4993283;28;20433;-45
2023/08/14 08:44:08;;;;;;;4.20;3.37;;;;;;;;;;4992625;28;20470;-45
2023/08/14 08:46:36;;;;;;;3.20;2.90;;;;;;;;;;4993713;28;20441;-43
2023/08/14 08:49:05;;;;;;;2.83;2.63;;;;;;;;;;4992571;28;20433;-43
2023/08/14 08:51:34;;;;;;;3.83;2.67;;;;;;;;;;4993534;28;20439;-40
2023/08/14 08:54:01;;;;;;;2.70;2.37;;;;;;;;;;4992792;28;20516;-43
2023/08/14 08:56:29;;;;;;;5.47;2.30;;;;;;;;;;4993498;28;20807;-42
2023/08/14 08:58:58;;;;;;;4.83;2.70;;;;;;;;;;4993379;28;20437;-44
2023/08/14 09:01:26;;;;;;;4.17;2.97;;;;;;;;;;4993327;28;20525;-43
2023/08/14 09:03:54;;;;;;;3.30;3.00;;;;;;;;;;4992586;28;20477;-42
2023/08/14 09:06:23;;;;;;;3.47;3.00;;;;;;;;;;4993178;28;20429;-46
2023/08/14 09:08:50;;;;;;;3.57;2.77;;;;;;;;;;4992591;28;20442;-43
2023/08/14 09:11:18;;;;;;;3.63;2.57;;;;;;;;;;4993375;28;20433;-43
2023/08/14 09:13:46;;;;;;;2.87;2.67;;;;;;;;;;4992300;28;20470;-42
2023/08/14 09:16:14;;;;;;;3.13;2.80;;;;;;;;;;4993287;28;20777;-42
2023/08/14 09:18:42;;;;;;;2.77;2.57;;;;;;;;;;4992925;28;20528;-43
2023/08/14 09:21:10;;;;;;;2.70;2.50;;;;;;;;;;4992662;28;20500;-43
2023/08/14 09:23:40;;;;;;;3.20;2.90;;;;;;;;;;4992021;28;20465;-42
2023/08/14 09:26:07;;;;;;;2.70;2.60;;;;;;;;;;4993193;28;20447;-44
2023/08/14 09:28:35;;;;;;;2.27;2.17;;;;;;;;;;4992676;28;20434;-43
2023/08/14 09:31:07;;;;;;;2.13;2.03;;;;;;;;;;4992434;28;20441;-42
2023/08/14 09:33:34;;;;;;;2.70;2.20;;;;;;;;;;4992359;28;20462;-42
2023/08/14 09:36:02;;;;;;;2.37;2.17;;;;;;;;;;4992515;28;20429;-41
2023/08/14 09:38:31;;;;;;;2.63;2.40;;;;;;;;;;4992819;28;20525;-43
2023/08/14 09:41:00;;;;;;;2.70;2.33;;;;;;;;;;4992838;28;20528;-47
2023/08/14 09:43:28;;;;;;;2.80;2.63;;;;;;;;;;4992384;28;20549;-42
2023/08/14 09:45:56;;;;;;;3.13;2.83;;;;;;;;;;4992768;28;20978;-45
2023/08/14 09:48:24;;;;;;;3.07;2.97;;;;;;;;;;4992273;28;20517;-43
2023/08/14 09:50:52;;;;;;;2.70;2.50;;;;;;;;;;4992286;28;20440;-41
2023/08/14 09:53:20;;;;;;;3.50;2.73;;;;;;;;;;4991813;28;20521;-43
2023/08/14 09:55:47;;;;;;;3.70;3.00;;;;;;;;;;4992398;28;20511;-45
2023/08/14 09:58:16;;;;;;;2.93;2.70;;;;;;;;;;4992188;28;20915;-45
2023/08/14 10:00:44;;;;;;;3.20;3.00;;;;;;;;;;4992251;28;20785;-41
2023/08/14 10:03:12;;;;;;;3.73;3.10;;;;;;;;;;4991249;28;21042;-44
2023/08/14 10:05:40;;;;;;;3.13;2.93;;;;;;;;;;4988986;28;20907;-45
2023/08/14 10:08:08;;;;;;;3.53;3.27;;;;;;;;;;4992340;28;20465;-44
2023/08/14 10:10:37;;;;;;;3.23;3.03;;;;;;;;;;4992376;28;20436;-42
2023/08/14 10:13:08;;;;;;;3.20;3.00;;;;;;;;;;4992141;28;20815;-46
2023/08/14 10:15:41;;;;;;;4.43;3.23;;;;;;;;;;4991844;28;20446;-41
2023/08/14 10:18:10;;;;;;;4.20;3.33;;;;;;;;;;4991778;28;20456;-41
2023/08/14 10:20:38;;;;;;;2.93;2.70;;;;;;;;;;4992267;28;20528;-46
2023/08/14 10:23:07;;;;;;;5.07;3.50;;;;;;;;;;4990579;28;20461;-41
2023/08/14 10:25:36;;;;;;;4.73;3.60;;;;;;;;;;4991862;28;20478;-41
2023/08/14 10:28:05;;;;;;;6.00;4.03;;;;;;;;;;4991650;28;20441;-42
2023/08/14 10:33:02;;;;;;;4.17;3.83;;;;;;;;;;5009221;28;20468;-41
2023/08/14 10:35:30;;;;;;;3.83;3.50;;;;;;;;;;5010027;28;20588;-41
2023/08/14 10:37:58;;;;;;;4.00;3.30;;;;;;;;;;5010251;28;20456;-42
2023/08/14 10:40:37;;;;;;;4.20;3.80;;;;;;;;;;5010732;28;20444;-40
2023/08/14 10:43:05;;;;;;;6.10;3.77;;;;;;;;;;5009811;28;20790;-42
2023/08/14 10:45:33;;;;;;;4.33;3.70;;;;;;;;;;5009482;28;20476;-43
2023/08/14 10:48:09;;;;;;;4.03;3.63;;;;;;;;;;5010194;28;20468;-47
2023/08/14 10:50:37;;;;;;;4.10;3.80;;;;;;;;;;5009692;28;20996;-43
2023/08/14 10:53:05;;;;;;;3.57;3.27;;;;;;;;;;5010278;28;21039;-43
2023/08/14 10:55:36;;;;;;;3.23;3.00;;;;;;;;;;5009730;28;20440;-41
2023/08/14 10:58:19;;;;;;;3.47;3.20;;;;;;;;;;5010477;28;20516;-41
2023/08/14 11:00:46;;;;;;;3.90;3.60;;;;;;;;;;5009943;28;20443;-40
2023/08/14 11:03:15;;;;;;;3.50;3.30;;;;;;;;;;5008993;28;20432;-44
2023/08/14 11:05:43;;;;;;;5.40;4.10;;;;;;;;;;5009883;28;20480;-41
2023/08/14 11:08:12;;;;;;;3.73;3.43;;;;;;;;;;5009970;28;20433;-40
2023/08/14 11:10:40;;;;;;;4.23;3.90;;;;;;;;;;5009712;28;20276;-42
2023/08/14 11:13:08;;;;;;;7.40;3.87;;;;;;;;;;5013070;28;20280;-41
2023/08/14 11:15:36;;;;;;;4.13;3.93;;;;;;;;;;5013380;28;20435;-43
2023/08/14 11:18:05;;;;;;;4.50;3.77;;;;;;;;;;5013810;28;20256;-42
2023/08/14 11:20:36;;;;;;;4.17;3.30;;;;;;;;;;5013722;28;20659;-40
2023/08/14 11:23:04;;;;;;;3.83;3.53;;;;;;;;;;5013872;28;20229;-41
2023/08/14 11:25:31;;;;;;;4.93;4.03;;;;;;;;;;5012841;28;20538;-42
2023/08/14 11:27:59;;;;;;;5.33;4.83;;;;;;;;;;5014062;28;20429;-41
2023/08/14 11:30:30;;;;;;;4.10;3.90;;;;;;;;;;5013783;28;20997;-41
2023/08/14 11:33:04;;;;;;;4.37;3.87;;;;;;;;;;5013432;28;20233;-44
2023/08/14 11:35:31;;;;;;;5.93;3.83;;;;;;;;;;5013039;28;20225;-41
2023/08/14 11:38:01;;;;;;;6.47;4.30;;;;;;;;;;5013240;28;20339;-40
2023/08/14 11:40:35;;;;;;;4.00;3.70;;;;;;;;;;5013793;28;20543;-42
2023/08/14 11:43:02;;;;;;;4.50;4.10;;;;;;;;;;5013084;28;20531;-41
2023/08/14 11:45:29;;;;;;;4.93;4.17;;;;;;;;;;5012878;28;20472;-42
2023/08/14 11:47:57;;;;;;;4.50;4.10;;;;;;;;;;5014522;28;20827;-39
2023/08/14 11:50:25;;;;;;;4.43;4.03;;;;;;;;;;5013148;28;20479;-41
2023/08/14 11:52:52;;;;;;;4.03;3.57;;;;;;;;;;5013141;28;20448;-42
2023/08/14 11:55:21;;;;;;;4.20;3.90;;;;;;;;;;5012352;28;20466;-41
2023/08/14 11:57:49;;;;;;;7.40;4.20;;;;;;;;;;5012542;28;20443;-42
2023/08/14 12:00:16;;;;;;;5.40;4.80;;;;;;;;;;5013815;28;20440;-41
2023/08/14 12:02:53;;;;;;;3.80;3.50;;;;;;;;;;5012645;28;20550;-41
2023/08/14 12:05:21;;;;;;;4.30;3.90;;;;;;;;;;5012113;28;20484;-42
2023/08/14 12:07:48;;;;;;;6.87;4.27;;;;;;;;;;5013226;28;20432;-40
2023/08/14 12:10:16;;;;;;;5.03;4.27;;;;;;;;;;5012945;28;20861;-40
2023/08/14 12:12:45;;;;;;;3.80;3.57;;;;;;;;;;5012530;28;20510;-40
2023/08/14 12:15:22;;;;;;;4.97;4.30;;;;;;;;;;5012415;28;20456;-41
2023/08/14 12:17:51;;;;;;;4.97;4.57;;;;;;;;;;5012397;28;20524;-41
2023/08/14 12:20:21;;;;;;;4.10;3.80;;;;;;;;;;5012379;28;20436;-41
2023/08/14 12:22:48;;;;;;;5.07;4.10;;;;;;;;;;5011380;28;20456;-42
2023/08/14 12:25:28;;;;;;;3.93;3.63;;;;;;;;;;5011953;28;20472;-43
2023/08/14 12:27:58;;;;;;;3.80;3.50;;;;;;;;;;5012849;28;20486;-43
2023/08/14 12:30:25;;;;;;;3.83;3.47;;;;;;;;;;5012493;28;20436;-41
2023/08/14 12:32:53;;;;;;;7.10;4.10;;;;;;;;;;5011941;28;20539;-41
2023/08/14 12:35:20;;;;;;;5.87;4.10;;;;;;;;;;5012056;28;21034;-41
2023/08/14 12:37:48;;;;;;;4.27;3.90;;;;;;;;;;5012376;28;20429;-42
2023/08/14 12:40:16;;;;;;;5.83;4.30;;;;;;;;;;5013175;28;20436;-40
2023/08/14 12:42:44;;;;;;;13.10;4.07;;;;;;;;;;5012972;28;20841;-41
2023/08/14 12:45:12;;;;;;;7.53;3.50;;;;;;;;;;5012535;28;20470;-44
2023/08/14 12:47:40;;;;;;;4.17;3.80;;;;;;;;;;5011824;28;20555;-41
2023/08/14 12:50:08;;;;;;;5.93;4.00;;;;;;;;;;5012408;28;20420;-44
2023/08/14 12:52:35;;;;;;;9.80;3.43;;;;;;;;;;5011989;28;20461;-40
2023/08/14 12:55:03;;;;;;;4.90;3.57;;;;;;;;;;5012432;28;20457;-41
2023/08/14 12:57:32;;;;;;;3.60;3.30;;;;;;;;;;5011949;28;20436;-41
2023/08/14 13:00:00;;;;;;;5.40;3.83;;;;;;;;;;5012503;28;20455;-42
2023/08/14 13:02:29;;;;;;;7.33;3.97;;;;;;;;;;5012007;28;20623;-41
2023/08/14 13:04:56;;;;;;;5.07;4.07;;;;;;;;;;5011366;28;21052;-42
2023/08/14 13:07:27;;;;;;;4.63;4.20;;;;;;;;;;5011643;28;20436;-41
2023/08/14 13:09:55;;;;;;;4.03;3.63;;;;;;;;;;5011969;28;20445;-42
2023/08/14 13:12:22;;;;;;;4.53;4.13;;;;;;;;;;5011361;28;20464;-43
2023/08/14 13:14:50;;;;;;;6.73;3.90;;;;;;;;;;5011909;28;20488;-43
2023/08/14 13:17:17;;;;;;;3.90;3.37;;;;;;;;;;5011677;28;20460;-41
2023/08/14 13:19:47;;;;;;;4.30;4.00;;;;;;;;;;5011934;28;20572;-41
2023/08/14 13:22:15;;;;;;;3.33;3.10;;;;;;;;;;5010857;28;20453;-41
2023/08/14 13:24:43;;;;;;;3.40;3.20;;;;;;;;;;5011438;28;20833;-42
2023/08/14 13:27:11;;;;;;;3.73;3.43;;;;;;;;;;5011042;28;20531;-42
2023/08/14 13:29:38;;;;;;;3.63;3.33;;;;;;;;;;5011256;28;20536;-41
2023/08/14 13:32:06;;;;;;;6.27;4.30;;;;;;;;;;5011371;28;20460;-41
2023/08/14 13:34:34;;;;;;;8.80;4.50;;;;;;;;;;5011117;28;20547;-46
2023/08/14 13:37:02;;;;;;;4.03;3.63;;;;;;;;;;5011312;28;20432;-43
2023/08/14 13:39:32;;;;;;;6.30;4.17;;;;;;;;;;5011837;28;20466;-45
2023/08/14 13:42:00;;;;;;;3.87;3.47;;;;;;;;;;5011145;28;20491;-41
2023/08/14 13:44:27;;;;;;;5.03;3.67;;;;;;;;;;5011115;28;20249;-43
2023/08/14 13:46:55;;;;;;;4.17;3.80;;;;;;;;;;5011523;28;20554;-44
2023/08/14 13:49:22;;;;;;;5.00;4.60;;;;;;;;;;5011304;28;20444;-42
2023/08/14 13:51:50;;;;;;;4.47;4.07;;;;;;;;;;5011024;28;20502;-42
2023/08/14 13:54:18;;;;;;;4.07;3.53;;;;;;;;;;5010988;28;20552;-42
2023/08/14 13:56:46;;;;;;;4.10;3.70;;;;;;;;;;5011579;28;20420;-42
2023/08/14 13:59:13;;;;;;;3.83;3.43;;;;;;;;;;5011146;28;20455;-44
2023/08/14 14:01:41;;;;;;;4.03;3.67;;;;;;;;;;5011017;28;20604;-40
2023/08/14 14:04:08;;;;;;;4.17;3.90;;;;;;;;;;5010434;28;20472;-41
2023/08/14 14:06:36;;;;;;;3.70;3.40;;;;;;;;;;5011379;28;20210;-41
2023/08/14 14:09:04;;;;;;;3.03;2.83;;;;;;;;;;5010751;28;20495;-41
2023/08/14 14:11:33;;;;;;;5.60;3.60;;;;;;;;;;5010455;28;20730;-41
2023/08/14 14:14:00;;;;;;;4.43;4.03;;;;;;;;;;5010868;28;20643;-45
2023/08/14 14:16:48;;;;;;;5.47;3.70;;;;;;;;;;5010749;28;20193;-42
2023/08/14 14:19:15;;;;;;;4.37;4.07;;;;;;;;;;5010924;28;20456;-42
2023/08/14 14:21:43;;;;;;;4.67;3.60;;;;;;;;;;5010687;28;20463;-45
2023/08/14 14:24:10;;;;;;;3.70;3.50;;;;;;;;;;5010407;28;20547;-44
2023/08/14 14:26:39;;;;;;;4.90;4.20;;;;;;;;;;5011200;28;20556;-41
2023/08/14 14:29:06;;;;;;;3.37;3.07;;;;;;;;;;5010852;28;20256;-42
2023/08/14 14:31:34;;;;;;;5.67;4.60;;;;;;;;;;5010355;28;20837;-42
2023/08/14 14:34:01;;;;;;;4.03;3.63;;;;;;;;;;5010064;28;20993;-42
2023/08/14 14:36:29;;;;;;;6.30;3.30;;;;;;;;;;5010562;28;20980;-42
2023/08/14 14:38:57;;;;;;;4.93;4.47;;;;;;;;;;5010629;28;20798;-42
2023/08/14 14:41:24;;;;;;;6.70;4.90;;;;;;;;;;5010433;28;20491;-42